Terminal Aerodrome Forecast
Issued by NWS Charleston, WV

Current Version | Previous Version | Text Only | Print | Product List | Glossary Off
Versions: 1 2 3 4 5 6 7 8 9 10 11 12 13 14 15 16 17 18 19 20 21 22 23 24

000
FTUS41 KRLX 010200 AAA
TAFCRW
TAF AMD
KCRW 010240Z 0103/0124 VRB03KT P6SM BKN120
     FM011200 14005KT P6SM BKN035
     FM012100 18009KT P6SM OVC150
     FM012300 19010G16KT P6SM -RA OVC070=

USA.gov is the U.S. government's official web portal to all federal, state and local government web resources and services.